Arlington Heights, Ohio
Current Conditions -  °F | °C
As of 3:53 PM on Saturday 22 Nov 2014 (Local Time) from KHAO Reporting Station
Broken Clouds Broken Clouds  
Wind Chill: 61°   Ceiling: 10000
Heat Index: 61°   Visibility: 10mi
Dew Point: 38°   Wind: 9mph
Humidity: 42%   Direction: 210°SSW
Pressure: 30.11"   Gusts: 22mph
Location:  39.236°N, 84.4599°W
Report Text: KHAO 222053Z AUTO 21008G19KT 10SM BKN100 16/03 A3011 RMK AO2 SLP198 T01610033 56024
Loading
Personal Weather Stations






























Interactive Weather Map New forecast layout! Learn more

10-Day Weather Forecast

Advertisements
Track Severe Weather on mobile